Time;durP1;ratioP1;P1;durP2;ratioP2;P2;SDS_P1;SDS_P2;PMS_P1;PMS_P2;Temp;Humidity;BMP_temperature;BMP_pressure;BME280_temperature;BME280_humidity;BME280_pressure;Samples;Min_cycle;Max_cycle;Signal;HPM_P1;HPM_P2
2023/09/26 00:02:40;;;;;;;4.80;4.40;;;14.60;99.90;;;;;;4993095;28;20772;-70
2023/09/26 00:05:08;;;;;;;4.60;4.27;;;14.50;99.90;;;;;;4993365;28;20411;-70
2023/09/26 00:07:35;;;;;;;5.27;4.60;;;14.50;99.90;;;;;;4993497;28;20483;-70
2023/09/26 00:10:00;;;;;;;4.97;4.57;;;14.60;99.90;;;;;;4993279;28;20437;-70
2023/09/26 00:12:26;;;;;;;5.67;5.10;;;14.70;99.90;;;;;;4993931;28;20404;-69
2023/09/26 00:14:52;;;;;;;4.90;4.50;;;14.50;99.90;;;;;;4993340;28;20168;-69
2023/09/26 00:17:17;;;;;;;5.47;4.87;;;14.50;99.90;;;;;;4993608;28;20173;-70
2023/09/26 00:19:43;;;;;;;5.23;4.60;;;14.40;99.90;;;;;;4993313;28;20188;-70
2023/09/26 00:22:09;;;;;;;5.50;5.00;;;14.30;99.90;;;;;;4993157;28;20168;-70
2023/09/26 00:24:34;;;;;;;6.07;5.40;;;14.10;99.90;;;;;;4993395;28;20183;-70
2023/09/26 00:27:00;;;;;;;6.03;5.53;;;14.00;99.90;;;;;;4992935;28;20204;-71
2023/09/26 00:29:25;;;;;;;6.03;4.90;;;13.90;99.90;;;;;;4991761;28;20195;-70
2023/09/26 00:31:51;;;;;;;6.13;5.00;;;14.10;99.90;;;;;;4993094;28;20656;-71
2023/09/26 00:34:17;;;;;;;4.77;4.37;;;14.20;99.90;;;;;;4992953;28;20618;-71
2023/09/26 00:36:44;;;;;;;5.40;4.90;;;14.20;99.90;;;;;;4992940;28;20215;-70
2023/09/26 00:39:09;;;;;;;5.20;4.80;;;14.20;99.90;;;;;;4991580;28;20540;-70
2023/09/26 00:41:35;;;;;;;6.40;5.80;;;14.20;99.90;;;;;;4993141;28;20469;-70
2023/09/26 00:44:01;;;;;;;7.00;4.77;;;14.20;99.90;;;;;;4992836;28;20901;-70
2023/09/26 00:46:28;;;;;;;5.60;5.10;;;14.30;99.90;;;;;;4992792;28;20207;-71
2023/09/26 00:48:54;;;;;;;6.80;6.10;;;14.30;99.90;;;;;;4992653;28;20328;-71
2023/09/26 00:51:20;;;;;;;6.10;5.60;;;14.40;99.90;;;;;;4991556;28;20403;-70
2023/09/26 00:53:46;;;;;;;5.60;5.10;;;14.40;99.90;;;;;;4993861;28;20412;-71
2023/09/26 00:56:12;;;;;;;5.00;4.50;;;14.40;99.90;;;;;;4992899;28;20188;-70
2023/09/26 00:58:39;;;;;;;7.87;5.93;;;14.40;99.90;;;;;;4993202;28;20817;-70
2023/09/26 01:01:05;;;;;;;5.07;4.60;;;14.40;99.90;;;;;;4993195;28;20485;-71
2023/09/26 01:03:31;;;;;;;5.53;5.07;;;14.30;99.90;;;;;;4993472;28;20442;-70
2023/09/26 01:05:58;;;;;;;6.13;4.70;;;14.30;99.90;;;;;;4993065;28;20199;-70
2023/09/26 01:08:24;;;;;;;6.00;5.40;;;14.20;99.90;;;;;;4992900;28;21122;-70
2023/09/26 01:10:50;;;;;;;6.83;5.70;;;14.10;99.90;;;;;;4993463;28;20403;-70
2023/09/26 01:13:15;;;;;;;5.90;5.40;;;14.20;99.90;;;;;;4993146;28;20176;-71
2023/09/26 01:15:42;;;;;;;5.77;5.27;;;14.10;99.90;;;;;;4992771;28;20171;-70
2023/09/26 01:18:10;;;;;;;7.33;6.63;;;14.10;99.90;;;;;;4992960;28;20190;-70
2023/09/26 01:20:44;;;;;;;6.70;6.07;;;14.00;99.90;;;;;;4992761;28;20532;-70
2023/09/26 01:23:14;;;;;;;9.50;6.70;;;13.90;99.90;;;;;;4992745;28;20399;-71
2023/09/26 01:25:41;;;;;;;7.80;5.70;;;13.90;99.90;;;;;;4992630;28;20502;-70
2023/09/26 01:28:08;;;;;;;7.30;6.10;;;13.90;99.90;;;;;;4992703;28;20506;-71
2023/09/26 01:30:35;;;;;;;6.13;5.63;;;13.90;99.90;;;;;;4992813;28;20419;-70
2023/09/26 01:33:02;;;;;;;5.90;5.40;;;13.90;99.90;;;;;;4993116;28;20775;-69
2023/09/26 01:35:28;;;;;;;6.87;5.50;;;13.90;99.90;;;;;;4992402;28;20963;-70
2023/09/26 01:37:53;;;;;;;5.97;5.33;;;13.80;99.90;;;;;;4993257;28;20487;-70
2023/09/26 01:40:19;;;;;;;5.57;5.00;;;13.80;99.90;;;;;;4992443;28;20176;-70
2023/09/26 01:42:45;;;;;;;5.47;4.87;;;13.90;99.90;;;;;;4992767;28;20182;-70
2023/09/26 01:45:10;;;;;;;5.40;5.00;;;13.90;99.90;;;;;;4992390;28;20175;-70
2023/09/26 01:47:54;;;;;;;6.30;5.73;;;13.80;99.90;;;;;;4991828;28;20211;-70
2023/09/26 01:50:21;;;;;;;5.07;4.63;;;13.60;99.90;;;;;;4992642;28;20161;-71
2023/09/26 01:52:47;;;;;;;5.93;5.43;;;13.70;99.90;;;;;;4992566;28;20464;-69
2023/09/26 01:55:16;;;;;;;4.83;4.43;;;13.80;99.90;;;;;;4993046;28;20411;-69
2023/09/26 01:57:42;;;;;;;5.47;5.07;;;13.90;99.90;;;;;;4992070;28;20468;-71
2023/09/26 02:00:11;;;;;;;5.53;4.83;;;13.90;99.90;;;;;;4993032;28;20783;-70
2023/09/26 02:02:42;;;;;;;5.43;5.03;;;13.90;99.90;;;;;;4996103;28;20180;-70
2023/09/26 02:05:08;;;;;;;7.93;4.90;;;13.90;99.90;;;;;;4995683;28;20389;-70
2023/09/26 02:07:34;;;;;;;5.80;5.30;;;13.80;99.90;;;;;;4995792;28;20455;-70
2023/09/26 02:10:00;;;;;;;5.70;5.10;;;13.80;99.90;;;;;;4995642;28;20427;-70
2023/09/26 02:12:26;;;;;;;5.77;5.27;;;13.60;99.90;;;;;;4995499;28;20481;-70
2023/09/26 02:14:51;;;;;;;5.50;5.00;;;13.70;99.90;;;;;;4995794;28;20228;-70
2023/09/26 02:17:17;;;;;;;8.53;5.73;;;13.80;99.90;;;;;;4995677;28;20185;-70
2023/09/26 02:19:42;;;;;;;5.57;5.07;;;13.90;99.90;;;;;;4995384;28;20596;-70
2023/09/26 02:22:08;;;;;;;5.13;4.73;;;13.80;99.90;;;;;;4995632;28;20179;-70
2023/09/26 02:24:34;;;;;;;7.37;5.10;;;13.80;99.90;;;;;;4995688;28;20192;-70
2023/09/26 02:26:59;;;;;;;5.23;4.83;;;13.80;99.90;;;;;;4995177;28;20292;-70
2023/09/26 02:29:28;;;;;;;7.53;5.33;;;13.80;99.90;;;;;;4995448;28;20195;-70
2023/09/26 02:31:53;;;;;;;7.30;6.03;;;13.70;99.90;;;;;;4995559;28;20162;-73
2023/09/26 02:34:19;;;;;;;6.47;5.87;;;13.70;99.90;;;;;;4995579;28;20404;-73
2023/09/26 02:36:45;;;;;;;5.33;4.83;;;13.70;99.90;;;;;;4995264;28;20180;-73
2023/09/26 02:39:10;;;;;;;5.70;4.50;;;13.70;99.90;;;;;;4995379;28;20182;-73
2023/09/26 02:41:36;;;;;;;5.53;5.00;;;13.70;99.90;;;;;;4995084;28;20182;-72
2023/09/26 02:44:03;;;;;;;5.60;5.10;;;13.70;99.90;;;;;;4995039;28;20296;-73
2023/09/26 02:46:29;;;;;;;5.43;5.03;;;13.60;99.90;;;;;;4995144;28;20191;-72
2023/09/26 02:48:54;;;;;;;5.40;4.90;;;13.60;99.90;;;;;;4994926;28;20462;-73
2023/09/26 02:51:20;;;;;;;5.43;5.03;;;13.60;99.90;;;;;;4994979;28;20408;-74
2023/09/26 02:53:47;;;;;;;5.97;5.30;;;13.60;99.90;;;;;;4995157;28;20227;-74
2023/09/26 02:56:12;;;;;;;5.13;4.63;;;13.60;99.90;;;;;;4994858;28;20939;-74
2023/09/26 02:58:38;;;;;;;5.73;5.00;;;13.60;99.90;;;;;;4993504;28;20212;-73
2023/09/26 03:01:04;;;;;;;5.67;5.17;;;13.60;99.90;;;;;;4994911;28;20172;-73
2023/09/26 03:03:30;;;;;;;6.00;5.40;;;13.60;99.90;;;;;;4995014;28;20223;-73
2023/09/26 03:05:55;;;;;;;6.90;5.60;;;13.50;99.90;;;;;;4994683;28;20408;-73
2023/09/26 03:08:21;;;;;;;5.50;5.00;;;13.60;99.90;;;;;;4994530;28;20426;-73
2023/09/26 03:10:47;;;;;;;5.33;4.90;;;13.60;99.90;;;;;;4994587;28;20555;-73
2023/09/26 03:13:12;;;;;;;5.27;4.87;;;13.60;99.90;;;;;;4993547;28;20177;-73
2023/09/26 03:15:38;;;;;;;5.63;5.10;;;13.60;99.90;;;;;;4994820;28;20169;-73
2023/09/26 03:18:04;;;;;;;5.17;4.77;;;13.60;99.90;;;;;;4994784;28;20188;-73
2023/09/26 03:20:30;;;;;;;5.30;4.90;;;13.60;99.90;;;;;;4994336;28;20169;-73
2023/09/26 03:22:55;;;;;;;4.97;4.57;;;13.60;99.90;;;;;;4994927;28;20412;-73
2023/09/26 03:25:21;;;;;;;4.73;4.40;;;13.60;99.90;;;;;;4994635;28;20175;-72
2023/09/26 03:27:47;;;;;;;8.40;5.03;;;13.60;99.90;;;;;;4993997;28;20250;-74
2023/09/26 03:30:16;;;;;;;5.27;4.80;;;13.60;99.90;;;;;;4994161;28;20166;-72
2023/09/26 03:32:42;;;;;;;5.20;4.67;;;13.50;99.90;;;;;;4994064;28;20489;-72
2023/09/26 03:35:09;;;;;;;5.90;4.70;;;13.50;99.90;;;;;;4994083;28;20499;-73
2023/09/26 03:37:36;;;;;;;6.07;5.47;;;13.50;99.90;;;;;;4993985;28;20628;-74
2023/09/26 03:40:03;;;;;;;5.53;5.00;;;13.40;99.90;;;;;;4994128;28;20436;-73
2023/09/26 03:42:29;;;;;;;4.90;4.43;;;13.40;99.90;;;;;;4993789;28;20922;-72
2023/09/26 03:44:54;;;;;;;5.13;4.73;;;13.40;99.90;;;;;;4994299;28;20434;-74
2023/09/26 03:47:20;;;;;;;5.63;5.00;;;13.40;99.90;;;;;;4994134;28;20193;-72
2023/09/26 03:49:45;;;;;;;5.57;5.17;;;13.30;99.90;;;;;;4993928;28;20202;-74
2023/09/26 03:52:11;;;;;;;5.30;4.80;;;13.30;99.90;;;;;;4993222;28;20172;-73
2023/09/26 03:54:37;;;;;;;5.50;5.10;;;13.30;99.90;;;;;;4993697;28;20182;-73
2023/09/26 03:57:04;;;;;;;4.83;4.40;;;13.30;99.90;;;;;;4993720;28;20226;-73
2023/09/26 03:59:30;;;;;;;5.00;4.60;;;13.30;99.90;;;;;;4992802;28;20435;-72
2023/09/26 04:01:55;;;;;;;5.93;5.33;;;13.20;99.90;;;;;;4993436;28;20421;-73
2023/09/26 04:04:21;;;;;;;5.33;4.50;;;13.20;99.90;;;;;;4993626;28;20182;-72
2023/09/26 04:06:46;;;;;;;6.37;4.80;;;13.20;99.90;;;;;;4993438;28;20196;-73
2023/09/26 04:09:12;;;;;;;4.80;4.43;;;13.20;99.90;;;;;;4993577;28;20191;-73
2023/09/26 04:11:38;;;;;;;6.80;6.20;;;13.30;99.90;;;;;;4993244;28;20219;-72
2023/09/26 04:14:03;;;;;;;5.90;5.40;;;13.30;99.90;;;;;;4993375;28;20178;-72
2023/09/26 04:16:29;;;;;;;5.57;5.17;;;13.30;99.90;;;;;;4993475;28;20196;-71
2023/09/26 04:18:54;;;;;;;7.03;6.40;;;13.20;99.90;;;;;;4993049;28;20214;-72
2023/09/26 04:21:20;;;;;;;8.13;7.43;;;13.30;99.90;;;;;;4993102;28;20588;-74
2023/09/26 04:23:45;;;;;;;7.50;6.87;;;13.30;99.90;;;;;;4993091;28;20246;-73
2023/09/26 04:26:14;;;;;;;8.17;7.37;;;13.30;99.90;;;;;;4993033;28;20571;-73
2023/09/26 04:28:41;;;;;;;7.87;7.17;;;13.40;99.90;;;;;;4992881;28;20266;-72
2023/09/26 04:31:12;;;;;;;10.50;9.50;;;13.40;99.90;;;;;;4993246;28;20408;-73
2023/09/26 04:33:37;;;;;;;12.00;8.40;;;13.40;99.90;;;;;;4993257;28;20392;-73
2023/09/26 04:36:03;;;;;;;11.07;9.97;;;13.40;99.90;;;;;;4992926;28;20474;-73
2023/09/26 04:38:30;;;;;;;10.23;9.23;;;13.40;99.90;;;;;;4993006;28;20202;-72
2023/09/26 04:40:55;;;;;;;11.73;9.73;;;13.30;99.90;;;;;;4992803;28;20245;-73
2023/09/26 04:43:21;;;;;;;13.63;12.33;;;13.30;99.90;;;;;;4992819;28;20862;-72
2023/09/26 04:45:47;;;;;;;14.80;13.13;;;13.30;99.90;;;;;;4992468;28;20173;-72
2023/09/26 04:48:13;;;;;;;12.23;11.10;;;13.30;99.90;;;;;;4992575;28;20269;-72
2023/09/26 04:50:39;;;;;;;11.77;9.90;;;13.20;99.90;;;;;;4992832;28;20496;-72
2023/09/26 04:53:04;;;;;;;11.33;10.13;;;13.30;99.90;;;;;;4993116;28;20481;-74
2023/09/26 04:55:30;;;;;;;11.50;10.00;;;13.30;99.90;;;;;;4992789;28;20165;-72
2023/09/26 04:57:55;;;;;;;14.60;11.80;;;13.30;99.90;;;;;;4993228;28;20586;-74
2023/09/26 05:00:22;;;;;;;14.27;12.80;;;13.20;99.90;;;;;;4993413;28;20210;-75
2023/09/26 05:02:51;;;;;;;11.57;10.37;;;13.20;99.90;;;;;;4993139;28;20250;-73
2023/09/26 05:05:17;;;;;;;11.20;10.10;;;13.20;99.90;;;;;;4993107;28;20408;-73
2023/09/26 05:07:46;;;;;;;11.93;10.73;;;13.20;99.90;;;;;;4993151;28;20444;-74
2023/09/26 05:10:12;;;;;;;11.00;10.00;;;13.10;99.90;;;;;;4992939;28;20567;-73
2023/09/26 05:12:40;;;;;;;9.70;8.07;;;13.10;99.90;;;;;;4993107;28;20413;-73
2023/09/26 05:15:24;;;;;;;11.30;10.30;;;13.10;99.90;;;;;;4993079;28;20418;-73
2023/09/26 05:17:51;;;;;;;11.17;10.20;;;13.10;99.90;;;;;;4973809;28;20484;-73
2023/09/26 05:20:18;;;;;;;10.83;9.70;;;13.10;99.90;;;;;;4974316;28;20409;-73
2023/09/26 05:22:46;;;;;;;10.33;9.40;;;13.00;99.90;;;;;;4974289;28;20451;-74
2023/09/26 05:25:12;;;;;;;11.90;10.80;;;13.00;99.90;;;;;;4974123;28;20410;-73
2023/09/26 05:27:39;;;;;;;10.83;9.77;;;13.00;99.90;;;;;;4993342;28;20448;-73
2023/09/26 05:30:09;;;;;;;9.80;8.97;;;13.00;99.90;;;;;;4993905;28;20425;-74
2023/09/26 05:32:35;;;;;;;13.20;11.73;;;13.00;99.90;;;;;;4993783;28;20490;-73
2023/09/26 05:35:04;;;;;;;12.23;11.03;;;13.00;99.90;;;;;;4994575;28;20406;-73
2023/09/26 05:37:29;;;;;;;13.07;11.83;;;13.00;99.90;;;;;;4998391;28;20528;-73
2023/09/26 05:39:55;;;;;;;12.97;11.67;;;13.00;99.90;;;;;;4998259;28;20455;-74
2023/09/26 05:42:22;;;;;;;13.40;10.90;;;13.00;99.90;;;;;;4997514;28;20247;-74
2023/09/26 05:44:47;;;;;;;11.80;10.70;;;13.00;99.90;;;;;;4997606;28;20517;-74
2023/09/26 05:47:13;;;;;;;12.57;11.37;;;13.00;99.90;;;;;;4996603;28;20490;-73
2023/09/26 05:49:39;;;;;;;13.10;11.90;;;13.10;99.90;;;;;;5033093;23;20248;-73
2023/09/26 05:52:04;;;;;;;12.73;11.53;;;13.10;99.90;;;;;;5015898;28;20257;-73
2023/09/26 05:54:31;;;;;;;12.40;11.17;;;13.10;99.90;;;;;;5016410;28;20176;-73
2023/09/26 05:56:57;;;;;;;13.20;11.43;;;13.20;99.90;;;;;;5016171;28;20228;-73
2023/09/26 05:59:22;;;;;;;11.80;10.70;;;13.20;99.90;;;;;;5015659;28;20919;-73
2023/09/26 06:01:48;;;;;;;12.40;11.30;;;13.20;99.90;;;;;;5015964;28;20173;-73
2023/09/26 06:04:14;;;;;;;12.37;11.17;;;13.20;99.90;;;;;;5016183;28;20169;-72
2023/09/26 06:06:39;;;;;;;14.00;12.70;;;13.20;99.90;;;;;;5015981;28;20196;-73
2023/09/26 06:09:05;;;;;;;11.70;10.20;;;13.20;99.90;;;;;;5016159;28;20430;-73
2023/09/26 06:11:31;;;;;;;12.50;11.30;;;13.20;99.90;;;;;;5016098;28;20216;-73
2023/09/26 06:13:57;;;;;;;11.70;10.60;;;13.20;99.90;;;;;;5015805;28;20168;-72
2023/09/26 06:16:22;;;;;;;12.80;11.60;;;13.20;99.90;;;;;;5015825;28;20206;-73
2023/09/26 06:18:48;;;;;;;10.83;9.83;;;13.20;99.90;;;;;;5015637;28;20455;-73
2023/09/26 06:21:14;;;;;;;11.80;10.80;;;13.20;99.90;;;;;;5015946;28;20179;-73
2023/09/26 06:23:40;;;;;;;9.73;8.83;;;13.20;99.90;;;;;;5015662;28;20168;-73
2023/09/26 06:26:07;;;;;;;12.43;11.40;;;13.30;99.90;;;;;;5015827;28;20447;-73
2023/09/26 06:28:33;;;;;;;9.20;8.30;;;13.40;99.90;;;;;;5015680;28;20465;-72
2023/09/26 06:31:09;;;;;;;11.37;10.27;;;13.40;99.90;;;;;;5015634;28;20898;-73
2023/09/26 06:33:36;;;;;;;12.87;11.47;;;13.40;99.90;;;;;;5015563;28;20385;-73
2023/09/26 06:36:10;;;;;;;11.90;10.10;;;13.50;99.90;;;;;;5015741;28;20417;-73
2023/09/26 06:38:36;;;;;;;12.67;9.40;;;13.50;99.90;;;;;;5015747;28;20425;-73
2023/09/26 06:41:02;;;;;;;13.77;9.47;;;13.50;99.90;;;;;;5015804;28;20915;-73
2023/09/26 06:43:29;;;;;;;9.90;8.90;;;13.60;99.90;;;;;;5015731;28;20254;-74
2023/09/26 06:45:55;;;;;;;12.87;11.00;;;13.60;99.90;;;;;;5015616;28;20487;-73
2023/09/26 06:48:21;;;;;;;9.97;8.93;;;13.70;99.90;;;;;;5015472;28;20497;-73
2023/09/26 06:50:46;;;;;;;10.93;9.83;;;13.80;99.90;;;;;;5014040;28;20247;-73
2023/09/26 06:53:12;;;;;;;9.87;8.97;;;13.90;99.90;;;;;;5015579;28;20710;-73
2023/09/26 06:55:39;;;;;;;9.87;8.80;;;14.00;99.90;;;;;;5015075;28;20434;-73
2023/09/26 06:58:05;;;;;;;11.80;10.60;;;14.10;99.90;;;;;;5012342;28;20172;-73
2023/09/26 07:00:31;;;;;;;10.00;8.93;;;14.20;99.90;;;;;;5011158;28;20855;-74
2023/09/26 07:02:57;;;;;;;10.37;9.37;;;14.50;99.90;;;;;;5013105;28;20405;-73
2023/09/26 07:05:26;;;;;;;10.53;9.53;;;14.90;99.90;;;;;;5008724;28;20436;-74
2023/09/26 07:07:51;;;;;;;8.97;8.17;;;15.00;99.90;;;;;;5009960;28;20604;-72
2023/09/26 07:10:17;;;;;;;10.30;9.30;;;15.10;99.90;;;;;;5009441;28;20437;-73
2023/09/26 07:12:44;;;;;;;9.70;8.80;;;15.10;99.90;;;;;;5007447;28;20167;-74
2023/09/26 07:15:12;;;;;;;8.10;7.50;;;15.10;99.90;;;;;;5008828;28;20175;-72
2023/09/26 07:17:38;;;;;;;11.20;9.40;;;15.20;99.90;;;;;;5008605;28;20438;-73
2023/09/26 07:20:07;;;;;;;8.80;8.00;;;15.20;99.90;;;;;;5008758;28;20477;-73
2023/09/26 07:22:34;;;;;;;9.97;9.07;;;15.20;99.90;;;;;;5005880;28;20417;-74
2023/09/26 07:25:00;;;;;;;9.50;8.60;;;15.30;99.90;;;;;;5006752;28;20417;-73
2023/09/26 07:27:26;;;;;;;9.80;8.90;;;15.40;99.90;;;;;;5007142;28;20448;-74
2023/09/26 07:29:52;;;;;;;9.43;8.53;;;15.50;99.90;;;;;;5007091;28;20459;-74
2023/09/26 07:32:18;;;;;;;10.23;8.40;;;15.60;99.90;;;;;;5008194;28;20242;-74
2023/09/26 07:34:44;;;;;;;9.00;8.17;;;15.70;99.90;;;;;;5008690;28;20417;-74
2023/09/26 07:37:11;;;;;;;10.00;9.10;;;15.90;99.90;;;;;;5008048;28;20174;-73
2023/09/26 07:39:37;;;;;;;10.13;9.07;;;16.00;99.90;;;;;;5008230;28;20298;-74
2023/09/26 07:42:03;;;;;;;10.80;8.63;;;15.80;99.90;;;;;;5008066;28;20846;-74
2023/09/26 07:44:29;;;;;;;8.63;7.73;;;16.00;99.90;;;;;;5008798;28;20164;-72
2023/09/26 07:46:55;;;;;;;9.27;8.33;;;16.20;99.90;;;;;;5007018;28;21452;-73
2023/09/26 07:49:20;;;;;;;9.03;8.23;;;16.20;99.90;;;;;;5008532;28;20439;-73
2023/09/26 07:51:48;;;;;;;9.43;8.40;;;16.10;99.90;;;;;;5008265;28;20175;-73
2023/09/26 07:54:13;;;;;;;10.27;9.33;;;15.90;99.90;;;;;;5008490;28;20202;-73
2023/09/26 07:56:39;;;;;;;10.63;8.97;;;15.90;99.90;;;;;;5006401;28;20446;-73
2023/09/26 07:59:04;;;;;;;9.97;8.97;;;16.20;99.90;;;;;;5007164;28;20281;-73
2023/09/26 08:01:31;;;;;;;12.63;8.60;;;16.40;99.90;;;;;;5008251;28;20553;-73
2023/09/26 08:03:56;;;;;;;9.13;8.33;;;16.30;99.90;;;;;;5007442;28;20982;-74
2023/09/26 08:06:22;;;;;;;9.93;8.00;;;16.30;99.90;;;;;;5007843;28;20504;-74
2023/09/26 08:08:47;;;;;;;9.27;8.40;;;16.10;99.90;;;;;;5007517;28;20192;-73
2023/09/26 08:11:14;;;;;;;9.10;8.30;;;16.00;99.90;;;;;;5006146;28;20176;-74
2023/09/26 08:13:39;;;;;;;11.03;8.50;;;16.20;99.90;;;;;;5007363;28;20164;-74
2023/09/26 08:16:05;;;;;;;8.63;7.90;;;16.00;99.90;;;;;;5007696;28;20461;-74
2023/09/26 08:18:31;;;;;;;10.10;8.53;;;16.00;99.90;;;;;;5007885;28;20202;-73
2023/09/26 08:20:58;;;;;;;8.87;7.80;;;16.30;99.90;;;;;;5007270;28;20493;-72
2023/09/26 08:23:28;;;;;;;8.20;7.40;;;16.70;99.90;;;;;;5007710;28;20537;-74
2023/09/26 08:26:04;;;;;;;9.13;6.97;;;16.70;99.90;;;;;;5008349;28;20407;-73
2023/09/26 08:28:30;;;;;;;7.93;7.20;;;16.80;99.90;;;;;;5007555;28;20418;-74
2023/09/26 08:30:56;;;;;;;7.60;6.90;;;16.70;99.90;;;;;;5007393;28;20407;-73
2023/09/26 08:33:26;;;;;;;7.83;7.03;;;16.70;99.90;;;;;;5006765;28;20498;-73
2023/09/26 08:35:52;;;;;;;9.60;6.40;;;16.90;99.90;;;;;;5007539;28;20820;-72
2023/09/26 08:38:18;;;;;;;6.80;6.30;;;16.80;99.90;;;;;;5008051;28;20999;-74
2023/09/26 08:40:45;;;;;;;7.10;6.50;;;16.80;99.90;;;;;;5008207;28;20411;-74
2023/09/26 08:43:13;;;;;;;8.77;6.87;;;16.90;99.90;;;;;;5007716;28;20413;-73
2023/09/26 08:45:40;;;;;;;8.67;7.30;;;17.00;99.90;;;;;;5006820;28;20854;-73
2023/09/26 08:48:06;;;;;;;8.43;7.53;;;17.00;99.90;;;;;;5007374;28;20463;-71
2023/09/26 08:50:32;;;;;;;7.67;6.87;;;17.00;99.90;;;;;;5007499;28;20423;-72
2023/09/26 08:52:59;;;;;;;9.73;6.73;;;17.10;99.90;;;;;;5007257;28;20399;-74
2023/09/26 08:55:27;;;;;;;7.40;6.70;;;17.20;99.90;;;;;;5007318;28;20164;-74
2023/09/26 08:57:54;;;;;;;8.80;6.73;;;17.20;99.90;;;;;;5007464;28;20406;-73
2023/09/26 09:00:21;;;;;;;16.33;7.30;;;17.40;99.90;;;;;;5006078;28;20430;-73
2023/09/26 09:02:48;;;;;;;11.97;6.80;;;17.60;99.90;;;;;;5008013;28;20529;-74
2023/09/26 09:05:19;;;;;;;8.80;7.33;;;17.80;99.90;;;;;;5006886;28;21016;-74
2023/09/26 09:07:46;;;;;;;7.10;5.80;;;17.80;99.90;;;;;;5007746;28;21011;-74
2023/09/26 09:10:16;;;;;;;7.03;5.83;;;18.00;99.90;;;;;;5007728;28;20866;-74
2023/09/26 09:12:44;;;;;;;9.43;6.67;;;18.00;99.90;;;;;;5011240;28;20442;-74
2023/09/26 09:15:15;;;;;;;8.30;7.50;;;18.00;99.90;;;;;;5011140;28;20442;-74
2023/09/26 09:17:42;;;;;;;6.17;5.57;;;18.20;99.90;;;;;;5011927;28;21128;-74
2023/09/26 09:20:08;;;;;;;8.60;7.00;;;18.40;99.90;;;;;;5010704;28;20995;-74
2023/09/26 09:22:34;;;;;;;8.83;6.13;;;18.60;99.90;;;;;;5010275;28;20407;-74
2023/09/26 09:25:01;;;;;;;9.73;7.17;;;18.60;99.90;;;;;;5010542;28;20421;-74
2023/09/26 09:27:32;;;;;;;10.00;6.50;;;18.60;99.90;;;;;;5008727;28;20200;-74
2023/09/26 09:30:11;;;;;;;7.77;6.97;;;18.60;99.90;;;;;;5010676;28;20882;-74
2023/09/26 09:32:39;;;;;;;6.53;5.90;;;18.70;99.90;;;;;;5010102;28;20406;-74
2023/09/26 09:35:07;;;;;;;6.60;6.00;;;18.70;99.90;;;;;;5010711;28;20917;-74
2023/09/26 09:37:32;;;;;;;6.90;6.00;;;18.80;99.90;;;;;;5010723;28;20411;-75
2023/09/26 09:39:58;;;;;;;6.57;5.67;;;18.90;99.90;;;;;;5009873;28;20513;-74
2023/09/26 09:42:24;;;;;;;6.57;5.87;;;19.10;99.90;;;;;;5011636;28;20183;-74
2023/09/26 09:44:49;;;;;;;6.33;5.30;;;19.30;99.90;;;;;;5010653;28;20411;-74
2023/09/26 09:47:22;;;;;;;6.80;6.20;;;19.50;99.90;;;;;;5010315;28;20685;-74
2023/09/26 09:49:49;;;;;;;4.97;4.57;;;19.70;99.90;;;;;;5009661;28;20216;-74
2023/09/26 09:52:18;;;;;;;6.70;6.00;;;19.90;99.90;;;;;;5008101;28;20426;-74
2023/09/26 09:54:45;;;;;;;8.73;5.60;;;19.90;99.90;;;;;;5011079;28;20945;-74
2023/09/26 09:57:21;;;;;;;9.23;5.70;;;19.60;99.90;;;;;;5010586;28;20786;-74
2023/09/26 09:59:48;;;;;;;6.60;5.07;;;19.70;99.90;;;;;;5010233;28;20435;-74
2023/09/26 10:02:17;;;;;;;8.10;5.57;;;19.80;99.90;;;;;;5010116;28;20978;-74
2023/09/26 10:04:46;;;;;;;6.30;5.70;;;19.90;99.90;;;;;;5010573;28;20430;-73
2023/09/26 10:07:12;;;;;;;6.33;5.30;;;20.00;99.90;;;;;;5009979;28;20450;-74
2023/09/26 10:09:39;;;;;;;6.50;5.90;;;20.10;99.90;;;;;;5010216;28;20852;-74
2023/09/26 10:12:07;;;;;;;5.40;4.90;;;20.20;99.90;;;;;;5010684;28;20413;-73
2023/09/26 10:14:32;;;;;;;5.23;4.83;;;20.30;99.90;;;;;;5015871;28;20490;-74
2023/09/26 10:16:59;;;;;;;6.20;5.60;;;20.40;99.90;;;;;;5015201;28;20498;-74
2023/09/26 10:19:28;;;;;;;6.23;5.63;;;20.60;99.90;;;;;;5013444;28;20196;-73
2023/09/26 10:22:16;;;;;;;8.10;6.00;;;20.60;99.90;;;;;;5014926;28;20924;-74
2023/09/26 10:24:53;;;;;;;6.00;5.33;;;20.50;99.90;;;;;;5008601;28;20399;-74
2023/09/26 10:27:31;;;;;;;6.97;5.67;;;20.60;99.90;;;;;;5009448;28;21129;-74
2023/09/26 10:29:58;;;;;;;6.17;5.10;;;20.60;99.90;;;;;;5009268;28;20952;-74
2023/09/26 10:32:35;;;;;;;5.77;5.23;;;20.80;99.90;;;;;;5008588;28;20407;-74
2023/09/26 10:35:16;;;;;;;5.10;4.47;;;21.00;99.90;;;;;;5009941;28;20411;-73
2023/09/26 10:37:49;;;;;;;5.43;4.90;;;21.20;99.90;;;;;;5007438;28;20948;-74
2023/09/26 10:40:16;;;;;;;5.40;4.90;;;21.40;99.90;;;;;;5009494;28;20554;-74
2023/09/26 10:42:44;;;;;;;6.63;4.30;;;21.90;99.90;;;;;;5008747;28;20507;-74
2023/09/26 10:45:11;;;;;;;4.40;4.00;;;22.20;99.90;;;;;;5012793;28;20422;-73
2023/09/26 10:47:38;;;;;;;6.70;3.97;;;22.50;99.90;;;;;;5015502;28;20529;-74
2023/09/26 10:50:14;;;;;;;4.77;4.27;;;22.40;99.90;;;;;;5014917;28;20504;-74
2023/09/26 10:52:47;;;;;;;7.60;3.80;;;22.20;99.90;;;;;;5014300;28;20493;-73
2023/09/26 10:55:17;;;;;;;4.37;3.97;;;22.50;99.90;;;;;;5013248;28;20426;-74
2023/09/26 10:57:46;;;;;;;3.80;3.13;;;22.80;99.90;;;;;;5007982;28;20453;-74
2023/09/26 11:00:14;;;;;;;4.70;3.53;;;23.30;99.90;;;;;;5009618;28;20433;-73
2023/09/26 11:02:42;;;;;;;4.67;3.73;;;24.20;99.90;;;;;;5009728;28;20476;-74
2023/09/26 11:05:09;;;;;;;5.13;4.03;;;25.00;99.90;;;;;;5007487;28;20433;-74
2023/09/26 11:07:37;;;;;;;5.83;3.33;;;26.80;98.10;;;;;;5009135;28;20455;-74
2023/09/26 11:10:03;;;;;;;4.80;3.00;;;27.50;95.50;;;;;;5008257;28;20526;-75
2023/09/26 11:12:32;;;;;;;5.00;2.90;;;26.90;95.60;;;;;;5009333;28;20774;-74
2023/09/26 11:15:03;;;;;;;3.77;3.20;;;27.10;95.20;;;;;;5007893;28;20999;-72
2023/09/26 11:17:29;;;;;;;3.27;2.87;;;27.70;93.50;;;;;;5008658;28;20970;-72
2023/09/26 11:19:59;;;;;;;3.97;2.70;;;27.30;93.20;;;;;;5008151;28;20807;-73
2023/09/26 11:22:27;;;;;;;3.87;2.50;;;28.70;91.40;;;;;;5008455;28;20415;-73
2023/09/26 11:25:06;;;;;;;3.63;2.53;;;30.90;87.80;;;;;;5007715;28;20423;-72
2023/09/26 11:27:36;;;;;;;2.93;2.40;;;30.40;84.80;;;;;;5008079;28;20995;-75
2023/09/26 11:30:03;;;;;;;3.97;2.53;;;32.60;78.20;;;;;;5008237;28;21131;-74
2023/09/26 11:32:28;;;;;;;3.63;2.40;;;32.20;74.30;;;;;;5008400;28;20403;-74
2023/09/26 11:34:54;;;;;;;3.07;2.30;;;32.40;70.10;;;;;;5007896;28;20421;-74
2023/09/26 11:37:22;;;;;;;1.77;1.63;;;32.10;71.00;;;;;;5007721;28;20168;-74
2023/09/26 11:39:52;;;;;;;2.80;2.07;;;32.20;69.30;;;;;;5007972;28;20687;-74
2023/09/26 11:42:17;;;;;;;1.80;1.40;;;32.10;68.20;;;;;;5008170;28;20403;-74
2023/09/26 11:44:56;;;;;;;3.40;1.40;;;32.10;63.90;;;;;;5008867;28;20498;-74
2023/09/26 11:47:23;;;;;;;1.40;1.07;;;32.40;61.10;;;;;;5008736;28;20199;-74
2023/09/26 11:49:49;;;;;;;2.80;1.70;;;33.40;60.10;;;;;;5020409;23;20490;-71
2023/09/26 11:52:15;;;;;;;1.20;1.10;;;33.40;58.90;;;;;;4987574;28;20396;-72
2023/09/26 11:54:41;;;;;;;3.40;2.43;;;33.90;57.20;;;;;;4988219;28;20893;-71
2023/09/26 11:57:07;;;;;;;2.60;2.30;;;33.20;59.20;;;;;;5007445;28;20481;-71
2023/09/26 11:59:33;;;;;;;2.23;1.50;;;32.30;62.10;;;;;;5008295;28;20701;-72
2023/09/26 12:02:00;;;;;;;2.73;2.00;;;31.90;60.30;;;;;;5008433;28;20411;-73
2023/09/26 12:04:26;;;;;;;6.03;2.23;;;31.60;62.50;;;;;;5004344;28;20742;-72
2023/09/26 12:06:52;;;;;;;3.70;1.90;;;33.10;61.20;;;;;;5005627;28;20485;-72
2023/09/26 12:09:19;;;;;;;2.10;1.60;;;33.80;58.30;;;;;;5007318;28;20933;-72
2023/09/26 12:11:50;;;;;;;3.10;1.80;;;35.00;55.50;;;;;;5007740;28;20164;-72
2023/09/26 12:14:17;;;;;;;1.17;1.07;;;36.30;53.20;;;;;;5005618;28;20978;-73
2023/09/26 12:16:44;;;;;;;1.40;1.30;;;36.60;49.40;;;;;;4990693;28;20475;-73
2023/09/26 12:19:10;;;;;;;1.53;1.13;;;35.80;49.90;;;;;;4987185;28;20467;-74
2023/09/26 12:21:35;;;;;;;2.20;1.10;;;35.40;50.20;;;;;;4987418;28;20463;-72
2023/09/26 12:24:01;;;;;;;1.20;1.10;;;35.20;50.20;;;;;;4986304;28;20452;-73
2023/09/26 12:26:28;;;;;;;1.70;1.47;;;34.90;51.70;;;;;;5001834;28;21118;-73
2023/09/26 12:28:53;;;;;;;2.50;1.60;;;34.80;52.90;;;;;;5006898;28;20270;-75
2023/09/26 12:31:19;;;;;;;2.23;2.03;;;36.10;50.60;;;;;;5006604;28;20482;-71
2023/09/26 12:33:44;;;;;;;1.40;1.20;;;36.70;50.00;;;;;;5007031;28;20184;-72
2023/09/26 12:36:10;;;;;;;1.37;1.17;;;36.60;49.60;;;;;;4994596;28;20456;-72
2023/09/26 12:38:36;;;;;;;1.77;1.33;;;36.30;48.90;;;;;;4986269;28;20514;-72
2023/09/26 12:41:01;;;;;;;3.77;1.53;;;37.40;47.00;;;;;;5001562;28;20194;-72
2023/09/26 12:43:27;;;;;;;1.20;1.03;;;36.90;46.70;;;;;;5006186;28;20176;-71